createdAt,value
2019-05-14T00:01:38.902Z,11.20
2019-05-14T00:04:11.503Z,11.10
2019-05-14T00:06:42.161Z,11.10
2019-05-14T00:09:16.389Z,11.10
2019-05-14T00:11:46.368Z,11.10
2019-05-14T00:14:16.404Z,11.00
2019-05-14T00:16:46.351Z,11.00
2019-05-14T00:19:16.184Z,11.00
2019-05-14T00:21:46.444Z,10.90
2019-05-14T00:24:16.149Z,10.80
2019-05-14T00:26:46.288Z,10.80
2019-05-14T00:29:21.998Z,10.80
2019-05-14T00:31:55.257Z,10.70
2019-05-14T00:34:25.212Z,10.60
2019-05-14T00:36:58.031Z,10.60
2019-05-14T00:39:31.992Z,10.60
2019-05-14T00:42:02.833Z,10.60
2019-05-14T00:44:35.294Z,10.50
2019-05-14T00:47:05.390Z,10.50
2019-05-14T00:49:35.350Z,10.50
2019-05-14T00:52:05.280Z,10.50
2019-05-14T00:54:35.361Z,10.50
2019-05-14T00:57:17.825Z,10.30
2019-05-14T00:59:49.384Z,10.30
2019-05-14T01:02:21.621Z,10.30
2019-05-14T01:04:52.637Z,10.20
2019-05-14T01:07:24.447Z,10.20
2019-05-14T01:09:54.430Z,10.20
2019-05-14T01:12:24.218Z,10.20
2019-05-14T01:15:07.817Z,10.20
2019-05-14T01:17:31.493Z,10.10
2019-05-14T01:20:03.105Z,10.10
2019-05-14T01:22:34.200Z,10.10
2019-05-14T01:25:04.379Z,10.00
2019-05-14T01:27:53.308Z,10.00
2019-05-14T01:30:23.450Z,10.10
2019-05-14T01:32:53.916Z,9.90
2019-05-14T01:35:23.740Z,9.90
2019-05-14T01:37:53.760Z,9.80
2019-05-14T01:40:23.825Z,9.80
2019-05-14T01:42:56.097Z,9.80
2019-05-14T01:45:28.427Z,9.80
2019-05-14T01:48:01.390Z,9.80
2019-05-14T01:50:32.264Z,9.70
2019-05-14T01:53:02.350Z,9.70
2019-05-14T01:55:35.104Z,9.60
2019-05-14T01:58:05.060Z,9.60
2019-05-14T02:00:35.191Z,9.50
2019-05-14T02:03:12.131Z,9.40
2019-05-14T02:05:42.903Z,9.30
2019-05-14T02:08:13.301Z,9.20
2019-05-14T02:10:43.114Z,9.10
2019-05-14T02:13:13.149Z,9.20
2019-05-14T02:15:43.196Z,9.20
2019-05-14T02:18:17.261Z,9.10
2019-05-14T02:20:47.144Z,9.10
2019-05-14T02:23:17.994Z,9.00
2019-05-14T02:25:48.181Z,9.00
2019-05-14T02:28:22.099Z,8.90
2019-05-14T02:30:59.027Z,8.90
2019-05-14T02:33:35.494Z,8.90
2019-05-14T02:36:05.501Z,8.80
2019-05-14T02:38:38.726Z,8.80
2019-05-14T02:41:09.993Z,8.80
2019-05-14T02:43:40.879Z,8.90
2019-05-14T02:46:16.167Z,8.80
2019-05-14T02:48:42.470Z,8.80
2019-05-14T02:51:12.483Z,8.70
2019-05-14T02:53:42.306Z,8.70
2019-05-14T02:56:15.649Z,8.60
2019-05-14T02:58:59.741Z,8.60
2019-05-14T03:01:30.211Z,8.50
2019-05-14T03:04:02.565Z,8.50
2019-05-14T03:06:33.225Z,8.50
2019-05-14T03:09:04.637Z,8.50
2019-05-14T03:11:34.729Z,8.40
2019-05-14T03:14:05.037Z,8.40
2019-05-14T03:16:36.005Z,8.40
2019-05-14T03:19:09.946Z,8.40
2019-05-14T03:21:39.704Z,8.20
2019-05-14T03:24:11.650Z,8.20
2019-05-14T03:26:43.591Z,8.20
2019-05-14T03:29:14.215Z,8.20
2019-05-14T03:31:44.042Z,8.20
2019-05-14T03:34:14.525Z,8.20
2019-05-14T03:36:44.647Z,8.20
2019-05-14T03:39:18.936Z,8.20
2019-05-14T03:41:49.984Z,8.10
2019-05-14T03:44:20.311Z,8.10
2019-05-14T03:46:55.912Z,8.10
2019-05-14T03:49:24.901Z,8.10
2019-05-14T03:51:54.957Z,8.10
2019-05-14T03:54:24.822Z,8.10
2019-05-14T03:56:54.711Z,8.10
2019-05-14T03:59:24.555Z,8.10
2019-05-14T04:01:54.753Z,8.10
2019-05-14T04:04:29.671Z,8.10
2019-05-14T04:07:00.052Z,8.20
2019-05-14T04:09:31.915Z,8.20
2019-05-14T04:12:09.751Z,8.00
2019-05-14T04:14:40.907Z,7.90
2019-05-14T04:17:15.864Z,7.80
2019-05-14T04:19:49.944Z,7.80
2019-05-14T04:22:23.312Z,7.90
2019-05-14T04:24:55.757Z,7.90
2019-05-14T04:27:29.875Z,8.00
2019-05-14T04:30:01.679Z,8.00
2019-05-14T04:32:33.382Z,8.00
2019-05-14T04:35:04.630Z,8.00
2019-05-14T04:37:35.067Z,8.00
2019-05-14T04:40:05.299Z,8.00
2019-05-14T04:42:35.529Z,8.10
2019-05-14T04:45:06.288Z,8.10
2019-05-14T04:47:41.010Z,8.10
2019-05-14T04:50:10.615Z,8.10
2019-05-14T04:52:40.740Z,8.00
2019-05-14T04:55:11.038Z,8.00
2019-05-14T04:57:43.734Z,7.90
2019-05-14T05:00:19.854Z,7.90
2019-05-14T05:02:49.701Z,8.00
2019-05-14T05:05:22.363Z,8.00
2019-05-14T05:07:54.517Z,8.00
2019-05-14T05:10:29.533Z,8.00
2019-05-14T05:12:58.672Z,7.90
2019-05-14T05:15:29.159Z,8.00
2019-05-14T05:18:01.355Z,8.20
2019-05-14T05:20:31.204Z,8.20
2019-05-14T05:23:01.133Z,8.20
2019-05-14T05:25:32.885Z,8.20
2019-05-14T05:28:03.845Z,8.20
2019-05-14T05:30:38.377Z,8.10
2019-05-14T05:33:09.096Z,8.20
2019-05-14T05:35:45.335Z,8.30
2019-05-14T05:38:15.403Z,8.30
2019-05-14T05:40:48.410Z,8.30
2019-05-14T05:43:19.123Z,8.20
2019-05-14T05:45:49.379Z,8.30
2019-05-14T05:48:19.737Z,8.30
2019-05-14T05:50:50.064Z,8.30
2019-05-14T05:53:20.659Z,8.20
2019-05-14T05:55:50.677Z,8.30
2019-05-14T05:58:20.499Z,8.30
2019-05-14T06:00:52.910Z,8.40
2019-05-14T06:03:23.197Z,8.50
2019-05-14T06:05:53.248Z,9.00
2019-05-14T06:08:23.180Z,9.90
2019-05-14T06:11:02.447Z,10.90
2019-05-14T06:13:32.345Z,11.60
2019-05-14T06:16:06.308Z,12.00
2019-05-14T06:18:39.428Z,12.20
2019-05-14T06:21:09.905Z,12.80
2019-05-14T06:23:42.135Z,13.70
2019-05-14T06:26:14.069Z,14.30
2019-05-14T06:28:48.748Z,14.20
2019-05-14T06:31:19.418Z,13.60
2019-05-14T06:33:50.104Z,13.70
2019-05-14T06:36:20.847Z,14.90
2019-05-14T06:38:52.397Z,16.00
2019-05-14T06:41:22.326Z,16.60
2019-05-14T06:43:52.106Z,16.80
2019-05-14T06:46:23.136Z,17.00
2019-05-14T06:48:56.133Z,17.20
2019-05-14T06:51:29.496Z,17.30
2019-05-14T06:53:59.462Z,17.00
2019-05-14T06:56:38.464Z,17.30
2019-05-14T06:59:09.077Z,17.50
2019-05-14T07:01:41.943Z,17.70
2019-05-14T07:04:14.169Z,17.40
2019-05-14T07:06:51.518Z,18.00
2019-05-14T07:09:23.065Z,18.40
2019-05-14T07:11:58.644Z,18.60
2019-05-14T07:14:33.600Z,18.40
2019-05-14T07:17:05.923Z,18.10
2019-05-14T07:19:35.483Z,18.40
2019-05-14T07:22:14.332Z,18.70
2019-05-14T07:24:52.804Z,18.60
2019-05-14T07:27:24.424Z,18.80
2019-05-14T07:30:00.315Z,18.60
2019-05-14T07:32:32.580Z,19.10
2019-05-14T07:35:05.247Z,18.60
2019-05-14T07:37:39.343Z,19.20
2019-05-14T07:40:09.255Z,19.10
2019-05-14T07:42:40.322Z,19.80
2019-05-14T07:45:10.949Z,19.40
2019-05-14T07:47:42.828Z,19.90
2019-05-14T07:50:12.911Z,20.20
2019-05-14T07:52:49.741Z,20.20
2019-05-14T07:55:19.889Z,19.80
2019-05-14T07:57:52.837Z,20.00
2019-05-14T08:00:23.331Z,19.50
2019-05-14T08:02:53.462Z,19.50
2019-05-14T08:05:28.759Z,19.30
2019-05-14T08:07:59.095Z,19.60
2019-05-14T08:10:29.247Z,19.80
2019-05-14T08:12:59.289Z,20.70
2019-05-14T08:15:32.378Z,21.50
2019-05-14T08:18:02.128Z,21.70
2019-05-14T08:20:32.538Z,21.90
2019-05-14T08:23:04.959Z,20.90
2019-05-14T08:25:35.397Z,20.00
2019-05-14T08:28:08.149Z,19.50
2019-05-14T08:30:39.046Z,19.90
2019-05-14T08:33:10.149Z,20.90
2019-05-14T08:35:43.808Z,21.60
2019-05-14T08:38:13.857Z,21.20
2019-05-14T08:40:43.925Z,21.50
2019-05-14T08:43:14.185Z,21.60
2019-05-14T08:45:45.530Z,22.10
2019-05-14T08:48:15.732Z,22.00
2019-05-14T08:50:48.176Z,22.00
2019-05-14T08:53:19.251Z,22.50
2019-05-14T08:55:49.647Z,21.90
2019-05-14T08:58:23.243Z,22.90
2019-05-14T09:00:58.984Z,23.60
2019-05-14T09:03:31.196Z,23.80
2019-05-14T09:06:05.358Z,23.80
2019-05-14T09:08:39.007Z,23.90
2019-05-14T09:11:11.317Z,23.60
2019-05-14T09:13:44.737Z,23.20
2019-05-14T09:16:36.801Z,22.50
2019-05-14T09:18:52.032Z,23.10
2019-05-14T09:21:29.487Z,22.40
2019-05-14T09:24:00.145Z,23.00
2019-05-14T09:26:30.590Z,24.20
2019-05-14T09:29:16.992Z,25.20
2019-05-14T09:31:32.282Z,25.40
2019-05-14T09:34:05.255Z,23.70
2019-05-14T09:36:39.576Z,23.50
2019-05-14T09:39:12.374Z,22.60
2019-05-14T09:41:42.359Z,21.40
2019-05-14T09:44:12.502Z,20.80
2019-05-14T09:46:50.007Z,21.10
2019-05-14T09:49:42.452Z,20.70
2019-05-14T09:52:29.717Z,21.70
2019-05-14T09:55:01.353Z,22.60
2019-05-14T09:57:34.928Z,24.20
2019-05-14T10:00:18.679Z,25.10
2019-05-14T10:02:51.939Z,24.30
2019-05-14T10:05:25.814Z,22.70
2019-05-14T10:08:00.798Z,22.20
2019-05-14T10:10:39.897Z,23.10
2019-05-14T10:13:10.910Z,21.40
2019-05-14T10:15:42.264Z,20.20
2019-05-14T10:18:18.847Z,21.60
2019-05-14T10:20:49.408Z,21.70
2019-05-14T10:23:19.739Z,21.70
2019-05-14T10:25:54.438Z,21.00
2019-05-14T10:28:24.594Z,20.40
2019-05-14T10:30:54.995Z,21.00
2019-05-14T10:33:38.877Z,22.70
2019-05-14T10:36:21.009Z,23.10
2019-05-14T10:38:51.164Z,24.40
2019-05-14T10:41:21.658Z,25.80
2019-05-14T10:43:59.922Z,26.00
2019-05-14T10:46:30.192Z,26.20
2019-05-14T10:49:16.528Z,26.10
2019-05-14T10:51:40.923Z,25.60
2019-05-14T10:54:25.672Z,24.30
2019-05-14T10:56:53.888Z,23.30
2019-05-14T10:59:30.575Z,21.90
2019-05-14T11:02:02.783Z,21.90
2019-05-14T11:04:39.004Z,21.30
2019-05-14T11:07:12.893Z,21.10
2019-05-14T11:09:48.667Z,22.20
2019-05-14T11:12:23.573Z,22.60
2019-05-14T11:14:56.221Z,23.30
2019-05-14T11:17:33.771Z,24.10
2019-05-14T11:20:12.619Z,24.10
2019-05-14T11:22:50.077Z,25.00
2019-05-14T11:25:21.319Z,26.10
2019-05-14T11:27:58.616Z,27.00
2019-05-14T11:30:30.647Z,27.60
2019-05-14T11:33:05.521Z,27.60
2019-05-14T11:35:43.907Z,28.00
2019-05-14T11:38:28.439Z,27.00
2019-05-14T11:40:49.560Z,25.40
2019-05-14T11:43:22.776Z,23.40
2019-05-14T11:45:53.175Z,22.50
2019-05-14T11:48:23.446Z,21.40
2019-05-14T11:50:55.205Z,21.10
2019-05-14T11:53:38.562Z,22.30
2019-05-14T11:56:19.614Z,23.70
2019-05-14T11:58:54.700Z,24.70
2019-05-14T12:01:25.657Z,26.20
2019-05-14T12:04:03.315Z,26.60
2019-05-14T12:06:33.794Z,26.20
2019-05-14T12:09:11.461Z,26.50
2019-05-14T12:11:38.720Z,26.10
2019-05-14T12:14:09.542Z,26.80
2019-05-14T12:16:40.554Z,27.10
2019-05-14T12:19:13.249Z,27.10
2019-05-14T12:22:02.866Z,27.80
2019-05-14T12:24:21.930Z,26.70
2019-05-14T12:26:52.820Z,25.90
2019-05-14T12:29:28.902Z,25.40
2019-05-14T12:31:59.552Z,24.50
2019-05-14T12:34:44.872Z,24.60
2019-05-14T12:37:22.349Z,25.40
2019-05-14T12:39:54.724Z,25.80
2019-05-14T12:42:29.576Z,26.40
2019-05-14T12:45:19.017Z,26.80
2019-05-14T12:47:50.221Z,26.40
2019-05-14T12:50:30.090Z,26.80
2019-05-14T12:52:59.459Z,27.40
2019-05-14T12:55:32.948Z,27.60
2019-05-14T12:58:08.559Z,26.90
2019-05-14T13:00:48.939Z,26.10
2019-05-14T13:03:28.545Z,26.20
2019-05-14T13:06:05.120Z,26.70
2019-05-14T13:08:48.995Z,27.00
2019-05-14T13:11:19.728Z,26.40
2019-05-14T13:14:21.560Z,25.70
2019-05-14T13:17:28.203Z,25.40
2019-05-14T13:19:58.488Z,25.40
2019-05-14T13:22:42.400Z,25.50
2019-05-14T13:25:11.165Z,25.10
2019-05-14T13:27:41.580Z,24.90
2019-05-14T13:30:12.447Z,25.20
2019-05-14T13:32:43.169Z,24.50
2019-05-14T13:35:14.633Z,23.80
2019-05-14T13:37:45.294Z,23.10
2019-05-14T13:40:16.148Z,22.40
2019-05-14T13:42:51.012Z,21.30
2019-05-14T13:45:24.679Z,20.90
2019-05-14T13:47:55.711Z,20.80
2019-05-14T13:50:29.215Z,20.60
2019-05-14T13:53:06.880Z,20.80
2019-05-14T13:55:30.965Z,20.40
2019-05-14T13:58:04.139Z,20.10
2019-05-14T14:00:38.383Z,20.00
2019-05-14T14:03:10.065Z,20.30
2019-05-14T14:05:42.087Z,20.30
2019-05-14T14:08:19.115Z,20.30
2019-05-14T14:10:53.081Z,20.50
2019-05-14T14:13:20.163Z,20.30
2019-05-14T14:15:50.880Z,20.30
2019-05-14T14:18:27.175Z,20.30
2019-05-14T14:20:59.010Z,20.20
2019-05-14T14:23:31.739Z,19.80
2019-05-14T14:26:09.401Z,19.90
2019-05-14T14:28:49.282Z,20.10
2019-05-14T14:31:18.858Z,20.00
2019-05-14T14:33:49.477Z,20.10
2019-05-14T14:36:20.213Z,19.70
2019-05-14T14:38:50.577Z,19.50
2019-05-14T14:41:20.900Z,19.70
2019-05-14T14:43:54.361Z,19.70
2019-05-14T14:46:24.266Z,19.70
2019-05-14T14:49:00.173Z,19.80
2019-05-14T14:51:31.217Z,19.80
2019-05-14T14:54:10.252Z,19.90
2019-05-14T14:56:37.918Z,19.80
2019-05-14T14:59:09.530Z,19.90
2019-05-14T15:01:41.633Z,19.80
2019-05-14T15:04:14.080Z,19.90
2019-05-14T15:06:46.211Z,19.60
2019-05-14T15:09:18.186Z,19.50
2019-05-14T15:11:51.564Z,19.50
2019-05-14T15:15:06.220Z,19.30
2019-05-14T15:17:39.347Z,19.30
2019-05-14T15:20:12.600Z,19.20
2019-05-14T15:22:48.668Z,19.10
2019-05-14T15:25:19.554Z,19.10
2019-05-14T15:27:50.462Z,19.00
2019-05-14T15:30:22.247Z,19.10
2019-05-14T15:32:52.640Z,19.40
2019-05-14T15:35:23.534Z,19.60
2019-05-14T15:38:30.080Z,19.40
2019-05-14T15:41:19.916Z,19.10
2019-05-14T15:43:50.100Z,19.10
2019-05-14T15:46:24.200Z,19.10
2019-05-14T15:49:23.865Z,19.10
2019-05-14T15:51:59.864Z,19.10
2019-05-14T15:54:42.339Z,19.00
2019-05-14T15:57:06.262Z,18.90
2019-05-14T16:00:00.774Z,18.90
2019-05-14T16:02:31.397Z,18.90
2019-05-14T16:05:02.017Z,18.90
2019-05-14T16:07:39.147Z,18.80
2019-05-14T16:10:13.841Z,18.70
2019-05-14T16:12:50.320Z,18.70
2019-05-14T16:15:21.430Z,18.70
2019-05-14T16:18:06.028Z,18.70
2019-05-14T16:20:24.076Z,18.70
2019-05-14T16:22:58.830Z,18.70
2019-05-14T16:25:42.156Z,18.50
2019-05-14T16:28:10.376Z,18.40
2019-05-14T16:33:49.264Z,18.20
2019-05-14T16:36:28.734Z,18.40
2019-05-14T16:39:11.158Z,18.30
2019-05-14T16:41:49.004Z,18.50
2019-05-14T16:44:28.489Z,18.70
2019-05-14T16:47:02.457Z,18.50
2019-05-14T16:49:39.403Z,18.20
2019-05-14T16:52:25.494Z,18.20
2019-05-14T16:55:20.246Z,18.30
2019-05-14T16:57:50.568Z,18.40
2019-05-14T17:00:23.408Z,18.50
2019-05-14T17:02:54.958Z,18.60
2019-05-14T17:05:34.289Z,18.30
2019-05-14T17:08:22.681Z,18.30
2019-05-14T17:11:18.219Z,18.30
2019-05-14T17:13:53.410Z,18.40
2019-05-14T17:16:29.526Z,18.40
2019-05-14T17:19:04.505Z,18.40
2019-05-14T17:21:39.017Z,18.30
2019-05-14T17:24:20.018Z,18.20
2019-05-14T17:26:52.350Z,18.10
2019-05-14T17:29:28.403Z,18.10
2019-05-14T17:32:00.399Z,18.00
2019-05-14T17:34:38.588Z,17.90
2019-05-14T17:37:19.715Z,17.60
2019-05-14T17:39:51.983Z,17.50
2019-05-14T17:42:29.195Z,17.40
2019-05-14T17:45:17.315Z,17.50
2019-05-14T17:47:58.334Z,17.30
2019-05-14T17:50:34.525Z,17.10
2019-05-14T17:53:09.741Z,17.20
2019-05-14T17:55:47.232Z,17.30
2019-05-14T17:58:32.740Z,17.20
2019-05-14T18:01:10.219Z,17.20
2019-05-14T18:03:50.405Z,17.00
2019-05-14T18:06:21.194Z,16.90
2019-05-14T18:09:10.705Z,16.90
2019-05-14T18:11:49.164Z,17.00
2019-05-14T18:14:31.005Z,17.00
2019-05-14T18:17:05.209Z,17.10
2019-05-14T18:19:38.283Z,17.00
2019-05-14T18:22:19.470Z,17.00
2019-05-14T18:24:59.189Z,16.80
2019-05-14T18:28:09.202Z,16.60
2019-05-14T18:31:11.960Z,16.70
2019-05-14T18:33:49.212Z,16.70
2019-05-14T18:36:28.346Z,16.70
2019-05-14T18:38:58.567Z,16.60
2019-05-14T18:41:49.844Z,16.60
2019-05-14T18:44:28.486Z,16.60
2019-05-14T18:47:08.760Z,16.60
2019-05-14T18:49:39.579Z,16.60
2019-05-14T18:52:15.015Z,16.50
2019-05-14T18:54:48.314Z,16.50
2019-05-14T18:57:23.866Z,16.50
2019-05-14T19:00:04.708Z,16.30
2019-05-14T19:02:44.185Z,16.40
2019-05-14T19:05:22.892Z,16.40
2019-05-14T19:07:53.762Z,16.40
2019-05-14T19:10:23.868Z,16.30
2019-05-14T19:13:08.840Z,16.20
2019-05-14T19:15:50.328Z,16.10
2019-05-14T19:19:07.945Z,16.10
2019-05-14T19:21:58.245Z,16.10
2019-05-14T19:24:30.855Z,16.10
2019-05-14T19:27:19.179Z,16.00
2019-05-14T19:29:55.843Z,16.00
2019-05-14T19:32:29.243Z,15.90
2019-05-14T19:35:04.298Z,15.90
2019-05-14T19:37:45.163Z,15.80
2019-05-14T19:40:39.222Z,15.60
2019-05-14T19:43:10.668Z,15.50
2019-05-14T19:45:41.472Z,15.60
2019-05-14T19:48:16.151Z,15.50
2019-05-14T19:50:49.206Z,15.60
2019-05-14T19:53:31.890Z,15.50
2019-05-14T19:56:17.192Z,15.50
2019-05-14T19:58:47.506Z,15.50
2019-05-14T20:01:19.448Z,15.50
2019-05-14T20:03:52.339Z,15.30
2019-05-14T20:06:46.280Z,15.30
2019-05-14T20:09:19.433Z,15.30
2019-05-14T20:11:58.219Z,15.30
2019-05-14T20:14:33.680Z,15.30
2019-05-14T20:17:49.587Z,15.30
2019-05-14T20:20:19.891Z,15.30
2019-05-14T20:22:55.229Z,15.30
2019-05-14T20:25:28.265Z,15.20
2019-05-14T20:28:00.761Z,15.10
2019-05-14T20:30:49.169Z,14.90
2019-05-14T20:33:37.322Z,14.80
2019-05-14T20:36:18.616Z,14.70
2019-05-14T20:38:58.969Z,14.70
2019-05-14T20:41:54.855Z,14.60
2019-05-14T20:44:29.107Z,14.60
2019-05-14T20:47:06.430Z,14.60
2019-05-14T20:49:38.337Z,14.70
2019-05-14T20:52:12.445Z,14.60
2019-05-14T20:54:50.518Z,14.70
2019-05-14T20:57:30.454Z,14.70
2019-05-14T21:00:11.621Z,14.70
2019-05-14T21:02:49.878Z,14.70
2019-05-14T21:05:20.861Z,14.60
2019-05-14T21:07:51.618Z,14.50
2019-05-14T21:10:29.035Z,14.50
2019-05-14T21:12:59.423Z,14.50
2019-05-14T21:15:31.673Z,14.40
2019-05-14T21:18:14.640Z,14.30
2019-05-14T21:21:14.966Z,14.40
2019-05-14T21:23:49.491Z,14.40
2019-05-14T21:26:20.939Z,14.30
2019-05-14T21:28:58.254Z,14.30
2019-05-14T21:31:28.789Z,14.20
2019-05-14T21:34:03.439Z,14.00
2019-05-14T21:36:39.819Z,13.90
2019-05-14T21:39:18.753Z,13.90
2019-05-14T21:41:52.419Z,13.80
2019-05-14T21:44:24.652Z,13.70
2019-05-14T21:47:08.311Z,13.70
2019-05-14T21:49:43.779Z,13.60
2019-05-14T21:52:21.112Z,13.50
2019-05-14T21:55:06.244Z,13.40
2019-05-14T21:57:38.124Z,13.40
2019-05-14T22:00:25.013Z,13.30
2019-05-14T22:02:58.300Z,13.30
2019-05-14T22:05:31.867Z,13.20
2019-05-14T22:08:03.481Z,13.20
2019-05-14T22:10:36.131Z,13.10
2019-05-14T22:13:11.936Z,13.10
2019-05-14T22:15:44.406Z,13.00
2019-05-14T22:18:27.868Z,12.90
2019-05-14T22:21:08.835Z,12.90
2019-05-14T22:23:45.044Z,12.80
2019-05-14T22:26:11.342Z,12.80
2019-05-14T22:28:51.446Z,12.70
2019-05-14T22:31:32.122Z,12.60
2019-05-14T22:34:02.598Z,12.60
2019-05-14T22:36:42.505Z,12.50
2019-05-14T22:39:19.979Z,12.50
2019-05-14T22:41:51.085Z,12.50
2019-05-14T22:44:22.099Z,12.40
2019-05-14T22:46:52.304Z,12.40
2019-05-14T22:49:23.224Z,12.40
2019-05-14T22:51:54.271Z,12.30
2019-05-14T22:54:24.494Z,12.30
2019-05-14T22:56:54.478Z,12.20
2019-05-14T22:59:43.568Z,12.20
2019-05-14T23:02:19.407Z,12.20
2019-05-14T23:04:54.987Z,12.10
2019-05-14T23:07:48.646Z,12.10
2019-05-14T23:10:20.404Z,12.00
2019-05-14T23:13:00.422Z,12.00
2019-05-14T23:15:41.643Z,12.00
2019-05-14T23:18:35.031Z,12.00
2019-05-14T23:21:10.460Z,11.90
2019-05-14T23:23:45.611Z,11.90
2019-05-14T23:26:19.218Z,11.90
2019-05-14T23:28:54.770Z,11.80
2019-05-14T23:31:33.241Z,11.80
2019-05-14T23:34:07.469Z,11.70
2019-05-14T23:36:38.859Z,11.70
2019-05-14T23:39:12.403Z,11.70
2019-05-14T23:41:42.763Z,11.60
2019-05-14T23:44:13.085Z,11.60
2019-05-14T23:46:45.048Z,11.60
2019-05-14T23:49:14.852Z,11.60
2019-05-14T23:51:44.857Z,11.50
2019-05-14T23:54:14.884Z,11.50
2019-05-14T23:56:45.159Z,11.40
2019-05-14T23:59:18.421Z,11.40
